El Dorado, Arkansas
Current Conditions -  °F | °C
As of 7:53 PM on Thursday 20 Nov 2014 (Local Time) from KELD Reporting Station
Broken Clouds Broken Clouds  
Wind Chill: 55°   Ceiling: 5000
Heat Index: 55°   Visibility: 10mi
Dew Point: 50°   Wind: 8mph
Humidity: 83%   Direction: 100°E
Pressure: 30.14"   Gusts: NA
Location:  33.21°N, 92.66°W
Report Text: KELD 210153Z AUTO 10007KT 10SM BKN050 BKN060 13/10 A3014 RMK AO2 SLP206 T01280100
Loading
Personal Weather Stations






























Interactive Weather Map New forecast layout! Learn more

10-Day Weather Forecast

Advertisements
Track Severe Weather on mobile